createdAt,value
2023-11-29T00:00:59.953Z,99284.00
2023-11-29T00:03:28.762Z,99285.00
2023-11-29T00:05:57.559Z,99284.00
2023-11-29T00:08:26.433Z,99282.00
2023-11-29T00:10:56.658Z,99282.00
2023-11-29T00:13:25.468Z,99283.00
2023-11-29T00:15:54.253Z,99284.00
2023-11-29T00:18:23.095Z,99283.00
2023-11-29T00:20:51.938Z,99276.00
2023-11-29T00:23:20.801Z,99273.00
2023-11-29T00:25:49.602Z,99259.00
2023-11-29T00:28:19.777Z,99264.00
2023-11-29T00:30:48.566Z,99255.00
2023-11-29T00:33:18.492Z,99259.00
2023-11-29T00:35:47.390Z,99260.00
2023-11-29T00:38:16.157Z,99260.00
2023-11-29T00:40:45.301Z,99258.00
2023-11-29T00:43:15.857Z,99261.00
2023-11-29T00:45:46.197Z,99256.00
2023-11-29T00:48:15.043Z,99258.00
2023-11-29T00:50:44.004Z,99257.00
2023-11-29T00:53:12.764Z,99254.00
2023-11-29T00:55:41.586Z,99251.00
2023-11-29T00:58:10.321Z,99255.00
2023-11-29T01:00:40.199Z,99252.00
2023-11-29T01:03:10.414Z,99260.00
2023-11-29T01:05:39.299Z,99249.00
2023-11-29T01:08:08.523Z,99245.00
2023-11-29T01:10:40.314Z,99248.00
2023-11-29T01:13:09.160Z,99248.00
2023-11-29T01:15:37.967Z,99237.00
2023-11-29T01:18:06.920Z,99235.00
2023-11-29T01:20:37.318Z,99246.00
2023-11-29T01:23:06.898Z,99242.00
2023-11-29T01:25:35.772Z,99246.00
2023-11-29T01:28:07.020Z,99234.00
2023-11-29T01:30:35.861Z,99243.00
2023-11-29T01:33:04.782Z,99234.00
2023-11-29T01:35:33.756Z,99237.00
2023-11-29T01:38:03.992Z,99238.00
2023-11-29T01:40:32.739Z,99242.00
2023-11-29T01:43:02.408Z,99233.00
2023-11-29T01:45:31.261Z,99238.00
2023-11-29T01:48:00.503Z,99236.00
2023-11-29T01:50:38.555Z,99242.00
2023-11-29T01:53:11.535Z,99239.00
2023-11-29T01:55:43.518Z,99246.00
2023-11-29T01:58:12.415Z,99243.00
2023-11-29T02:00:41.241Z,99239.00
2023-11-29T02:03:10.186Z,99242.00
2023-11-29T02:05:39.498Z,99230.00
2023-11-29T02:08:10.354Z,99230.00
2023-11-29T02:10:40.257Z,99232.00
2023-11-29T02:13:09.809Z,99223.00
2023-11-29T02:15:39.149Z,99226.00
2023-11-29T02:18:08.097Z,99209.00
2023-11-29T02:20:37.646Z,99221.00
2023-11-29T02:23:14.005Z,99209.00
2023-11-29T02:25:44.332Z,99213.00
2023-11-29T02:28:13.115Z,99210.00
2023-11-29T02:30:41.933Z,99217.00
2023-11-29T02:33:10.877Z,99214.00
2023-11-29T02:35:39.757Z,99207.00
2023-11-29T02:38:10.404Z,99196.00
2023-11-29T02:40:39.204Z,99190.00
2023-11-29T02:43:09.449Z,99188.00
2023-11-29T02:45:38.256Z,99192.00
2023-11-29T02:48:07.895Z,99185.00
2023-11-29T02:50:36.788Z,99190.00
2023-11-29T02:53:05.595Z,99180.00
2023-11-29T02:55:34.321Z,99174.00
2023-11-29T02:58:04.097Z,99180.00
2023-11-29T03:00:34.292Z,99173.00
2023-11-29T03:03:03.138Z,99170.00
2023-11-29T03:05:31.938Z,99158.00
2023-11-29T03:08:00.721Z,99151.00
2023-11-29T03:10:29.466Z,99147.00
2023-11-29T03:12:58.243Z,99143.00
2023-11-29T03:15:27.059Z,99147.00
2023-11-29T03:17:57.310Z,99146.00
2023-11-29T03:20:26.150Z,99138.00
2023-11-29T03:22:54.927Z,99131.00
2023-11-29T03:25:23.939Z,99125.00
2023-11-29T03:27:52.688Z,99135.00
2023-11-29T03:30:21.450Z,99133.00
2023-11-29T03:32:50.288Z,99131.00
2023-11-29T03:35:20.596Z,99123.00
2023-11-29T03:37:49.363Z,99126.00
2023-11-29T03:40:18.153Z,99122.00
2023-11-29T03:42:46.949Z,99120.00
2023-11-29T03:45:15.829Z,99122.00
2023-11-29T03:47:44.698Z,99129.00
2023-11-29T03:50:13.712Z,99123.00
2023-11-29T03:52:44.362Z,99123.00
2023-11-29T03:55:13.281Z,99120.00
2023-11-29T03:57:42.084Z,99115.00
2023-11-29T04:00:12.554Z,99109.00
2023-11-29T04:02:41.408Z,99120.00
2023-11-29T04:05:10.701Z,99117.00
2023-11-29T04:07:39.683Z,99120.00
2023-11-29T04:10:10.962Z,99102.00
2023-11-29T04:12:40.730Z,99106.00
2023-11-29T04:15:10.417Z,99109.00
2023-11-29T04:17:39.278Z,99097.00
2023-11-29T04:20:09.591Z,99102.00
2023-11-29T04:22:39.559Z,99103.00
2023-11-29T04:25:10.498Z,99097.00
2023-11-29T04:27:39.400Z,99093.00
2023-11-29T04:30:09.433Z,99090.00
2023-11-29T04:32:38.289Z,99089.00
2023-11-29T04:35:08.344Z,99083.00
2023-11-29T04:37:37.159Z,99079.00
2023-11-29T04:40:06.779Z,99076.00
2023-11-29T04:42:36.937Z,99076.00
2023-11-29T04:45:06.377Z,99076.00
2023-11-29T04:47:35.262Z,99067.00
2023-11-29T04:50:04.623Z,99065.00
2023-11-29T04:52:34.898Z,99065.00
2023-11-29T04:55:03.834Z,99064.00
2023-11-29T04:57:32.662Z,99062.00
2023-11-29T05:00:05.663Z,99058.00
2023-11-29T05:02:34.516Z,99056.00
2023-11-29T05:05:08.200Z,99059.00
2023-11-29T05:07:37.536Z,99050.00
2023-11-29T05:10:09.109Z,99049.00
2023-11-29T05:12:38.017Z,99042.00
2023-11-29T05:15:12.824Z,99051.00
2023-11-29T05:17:43.526Z,99051.00
2023-11-29T05:20:13.261Z,99054.00
2023-11-29T05:22:42.013Z,99058.00
2023-11-29T05:25:11.230Z,99066.00
2023-11-29T05:27:40.058Z,99057.00
2023-11-29T05:30:11.309Z,99054.00
2023-11-29T05:32:40.264Z,99063.00
2023-11-29T05:35:09.838Z,99056.00
2023-11-29T05:37:38.625Z,99041.00
2023-11-29T05:40:09.667Z,99052.00
2023-11-29T05:42:39.740Z,99041.00
2023-11-29T05:45:10.927Z,99036.00
2023-11-29T05:47:39.760Z,99028.00
2023-11-29T05:50:09.651Z,99026.00
2023-11-29T05:52:38.445Z,99030.00
2023-11-29T05:55:08.601Z,99026.00
2023-11-29T05:57:37.396Z,99033.00
2023-11-29T06:00:24.088Z,99025.00
2023-11-29T06:03:02.161Z,99022.00
2023-11-29T06:05:31.972Z,99019.00
2023-11-29T06:08:01.094Z,99025.00
2023-11-29T06:10:29.928Z,99018.00
2023-11-29T06:12:58.700Z,99025.00
2023-11-29T06:15:28.028Z,99028.00
2023-11-29T06:17:56.867Z,99022.00
2023-11-29T06:20:28.376Z,99024.00
2023-11-29T06:22:57.267Z,99020.00
2023-11-29T06:25:26.084Z,99019.00
2023-11-29T06:27:54.871Z,99015.00
2023-11-29T06:30:23.680Z,99014.00
2023-11-29T06:32:52.502Z,99019.00
2023-11-29T06:35:22.081Z,99016.00
2023-11-29T06:37:59.360Z,99011.00
2023-11-29T06:40:31.263Z,99018.00
2023-11-29T06:43:00.068Z,99010.00
2023-11-29T06:45:28.877Z,99002.00
2023-11-29T06:47:57.713Z,99014.00
2023-11-29T06:50:26.513Z,99012.00
2023-11-29T06:52:57.582Z,99015.00
2023-11-29T06:55:26.431Z,99012.00
2023-11-29T06:57:55.224Z,99006.00
2023-11-29T07:00:24.079Z,99001.00
2023-11-29T07:02:52.953Z,98996.00
2023-11-29T07:05:21.756Z,99009.00
2023-11-29T07:07:52.066Z,99010.00
2023-11-29T07:10:23.065Z,99009.00
2023-11-29T07:12:53.719Z,99017.00
2023-11-29T07:15:22.527Z,99011.00
2023-11-29T07:17:51.351Z,98999.00
2023-11-29T07:20:27.473Z,99003.00
2023-11-29T07:23:02.367Z,99012.00
2023-11-29T07:25:32.520Z,99009.00
2023-11-29T07:28:01.310Z,99005.00
2023-11-29T07:30:30.699Z,99011.00
2023-11-29T07:32:59.540Z,99009.00
2023-11-29T07:35:28.396Z,99014.00
2023-11-29T07:37:57.185Z,99010.00
2023-11-29T07:40:26.609Z,99010.00
2023-11-29T07:42:56.875Z,99002.00
2023-11-29T07:45:25.813Z,99007.00
2023-11-29T07:47:54.996Z,99004.00
2023-11-29T07:50:23.846Z,98996.00
2023-11-29T07:52:52.697Z,98998.00
2023-11-29T07:55:21.509Z,98992.00
2023-11-29T07:57:50.520Z,98998.00
2023-11-29T08:00:21.461Z,98995.00
2023-11-29T08:02:50.348Z,98987.00
2023-11-29T08:05:22.179Z,98980.00
2023-11-29T08:07:50.938Z,98971.00
2023-11-29T08:10:19.768Z,98992.00
2023-11-29T08:12:48.566Z,98989.00
2023-11-29T08:15:17.533Z,98993.00
2023-11-29T08:17:48.176Z,98982.00
2023-11-29T08:20:17.265Z,98992.00
2023-11-29T08:22:46.750Z,98989.00
2023-11-29T08:25:15.754Z,98992.00
2023-11-29T08:27:44.548Z,98993.00
2023-11-29T08:30:14.086Z,98982.00
2023-11-29T08:32:42.847Z,98995.00
2023-11-29T08:35:13.134Z,98989.00
2023-11-29T08:37:42.323Z,98999.00
2023-11-29T08:40:11.599Z,98988.00
2023-11-29T08:42:41.254Z,98993.00
2023-11-29T08:45:11.417Z,98979.00
2023-11-29T08:47:41.556Z,98973.00
2023-11-29T08:50:12.168Z,98980.00
2023-11-29T08:52:43.612Z,98977.00
2023-11-29T08:55:12.460Z,98980.00
2023-11-29T08:57:41.387Z,98982.00
2023-11-29T09:00:11.339Z,98985.00
2023-11-29T09:02:40.160Z,98985.00
2023-11-29T09:05:10.202Z,98985.00
2023-11-29T09:07:40.352Z,98973.00
2023-11-29T09:10:11.017Z,98976.00
2023-11-29T09:12:39.868Z,98963.00
2023-11-29T09:15:10.515Z,98956.00
2023-11-29T09:17:42.188Z,98967.00
2023-11-29T09:20:11.868Z,98967.00
2023-11-29T09:22:41.966Z,98968.00
2023-11-29T09:25:12.209Z,98958.00
2023-11-29T09:27:40.940Z,98954.00
2023-11-29T09:30:11.384Z,98953.00
2023-11-29T09:32:40.275Z,98959.00
2023-11-29T09:35:09.473Z,98956.00
2023-11-29T09:37:38.976Z,98955.00
2023-11-29T09:40:12.139Z,98957.00
2023-11-29T09:42:40.920Z,98950.00
2023-11-29T09:45:13.052Z,98938.00
2023-11-29T09:47:42.027Z,98943.00
2023-11-29T09:50:11.710Z,98946.00
2023-11-29T09:52:42.341Z,98940.00
2023-11-29T09:55:13.070Z,98944.00
2023-11-29T09:57:42.016Z,98943.00
2023-11-29T10:00:12.012Z,98945.00
2023-11-29T10:02:41.812Z,98937.00
2023-11-29T10:05:11.909Z,98928.00
2023-11-29T10:07:41.521Z,98938.00
2023-11-29T10:10:12.367Z,98940.00
2023-11-29T10:12:45.440Z,98935.00
2023-11-29T10:15:15.010Z,98931.00
2023-11-29T10:17:46.359Z,98923.00
2023-11-29T10:20:15.851Z,98914.00
2023-11-29T10:22:44.847Z,98919.00
2023-11-29T10:25:21.099Z,98926.00
2023-11-29T10:27:50.680Z,98931.00
2023-11-29T10:30:19.729Z,98910.00
2023-11-29T10:32:50.315Z,98923.00
2023-11-29T10:35:22.142Z,98928.00
2023-11-29T10:37:58.646Z,98916.00
2023-11-29T10:40:29.247Z,98917.00
2023-11-29T10:43:01.345Z,98915.00
2023-11-29T10:45:31.157Z,98911.00
2023-11-29T10:48:04.666Z,98916.00
2023-11-29T10:50:34.641Z,98903.00
2023-11-29T10:53:03.634Z,98898.00
2023-11-29T10:55:39.434Z,98901.00
2023-11-29T10:58:20.723Z,98900.00
2023-11-29T11:00:49.689Z,98888.00
2023-11-29T11:03:49.596Z,98883.00
2023-11-29T11:06:38.543Z,98890.00
2023-11-29T11:09:27.436Z,98888.00
2023-11-29T11:11:59.960Z,98891.00
2023-11-29T11:14:36.208Z,98888.00
2023-11-29T11:17:08.157Z,98880.00
2023-11-29T11:19:38.845Z,98874.00
2023-11-29T11:22:12.173Z,98874.00
2023-11-29T11:25:04.721Z,98866.00
2023-11-29T11:27:36.766Z,98873.00
2023-11-29T11:30:21.663Z,98863.00
2023-11-29T11:32:52.354Z,98865.00
2023-11-29T11:35:34.863Z,98852.00
2023-11-29T11:38:09.186Z,98855.00
2023-11-29T11:40:40.465Z,98864.00
2023-11-29T11:43:12.461Z,98876.00
2023-11-29T11:45:46.622Z,98866.00
2023-11-29T11:48:15.638Z,98863.00
2023-11-29T11:50:44.518Z,98856.00
2023-11-29T11:53:13.242Z,98854.00
2023-11-29T11:55:44.308Z,98863.00
2023-11-29T11:58:15.957Z,98862.00
2023-11-29T12:00:45.239Z,98881.00
2023-11-29T12:03:15.379Z,98876.00
2023-11-29T12:05:44.193Z,98871.00
2023-11-29T12:08:13.083Z,98866.00
2023-11-29T12:10:41.928Z,98866.00
2023-11-29T12:13:12.183Z,98858.00
2023-11-29T12:15:42.589Z,98854.00
2023-11-29T12:18:17.965Z,98855.00
2023-11-29T12:20:49.513Z,98848.00
2023-11-29T12:23:27.822Z,98853.00
2023-11-29T12:25:56.976Z,98851.00
2023-11-29T12:28:31.417Z,98850.00
2023-11-29T12:31:01.956Z,98851.00
2023-11-29T12:33:32.241Z,98852.00
2023-11-29T12:36:01.557Z,98855.00
2023-11-29T12:38:30.393Z,98847.00
2023-11-29T12:40:59.123Z,98853.00
2023-11-29T12:43:27.883Z,98863.00
2023-11-29T12:45:59.519Z,98858.00
2023-11-29T12:48:30.224Z,98846.00
2023-11-29T12:50:59.084Z,98853.00
2023-11-29T12:53:29.097Z,98842.00
2023-11-29T12:55:57.889Z,98842.00
2023-11-29T12:58:26.689Z,98840.00
2023-11-29T13:03:24.260Z,98821.00
2023-11-29T13:05:54.533Z,98824.00
2023-11-29T13:08:23.354Z,98815.00
2023-11-29T13:10:53.478Z,98818.00
2023-11-29T13:13:22.228Z,98811.00
2023-11-29T13:15:51.085Z,98817.00
2023-11-29T13:18:20.003Z,98828.00
2023-11-29T13:20:49.478Z,98815.00
2023-11-29T13:23:19.683Z,98818.00
2023-11-29T13:25:49.030Z,98821.00
2023-11-29T13:28:17.806Z,98805.00
2023-11-29T13:30:46.863Z,98813.00
2023-11-29T13:33:15.864Z,98812.00
2023-11-29T13:35:44.911Z,98811.00
2023-11-29T13:38:13.718Z,98810.00
2023-11-29T13:40:44.079Z,98811.00
2023-11-29T13:43:13.183Z,98807.00
2023-11-29T13:45:41.973Z,98805.00
2023-11-29T13:48:10.940Z,98798.00
2023-11-29T13:50:39.947Z,98812.00
2023-11-29T13:53:08.757Z,98803.00
2023-11-29T13:55:37.696Z,98817.00
2023-11-29T13:58:09.343Z,98817.00
2023-11-29T14:00:39.147Z,98813.00
2023-11-29T14:03:09.901Z,98817.00
2023-11-29T14:05:39.041Z,98821.00
2023-11-29T14:08:08.010Z,98812.00
2023-11-29T14:10:36.854Z,98799.00
2023-11-29T14:13:07.099Z,98800.00
2023-11-29T14:15:37.298Z,98799.00
2023-11-29T14:18:06.393Z,98801.00
2023-11-29T14:20:35.983Z,98803.00
2023-11-29T14:23:04.819Z,98804.00
2023-11-29T14:25:33.652Z,98807.00
2023-11-29T14:28:03.822Z,98798.00
2023-11-29T14:30:35.314Z,98801.00
2023-11-29T14:33:04.724Z,98800.00
2023-11-29T14:35:33.693Z,98812.00
2023-11-29T14:38:04.286Z,98805.00
2023-11-29T14:40:33.211Z,98799.00
2023-11-29T14:43:02.940Z,98808.00
2023-11-29T14:45:31.814Z,98791.00
2023-11-29T14:48:02.202Z,98793.00
2023-11-29T14:50:31.293Z,98791.00
2023-11-29T14:53:00.177Z,98796.00
2023-11-29T14:55:28.983Z,98798.00
2023-11-29T14:57:57.685Z,98801.00
2023-11-29T15:00:27.056Z,98797.00
2023-11-29T15:02:55.848Z,98786.00
2023-11-29T15:05:26.045Z,98788.00
2023-11-29T15:07:54.839Z,98781.00
2023-11-29T15:10:23.650Z,98769.00
2023-11-29T15:12:52.418Z,98781.00
2023-11-29T15:15:21.181Z,98783.00
2023-11-29T15:17:50.152Z,98797.00
2023-11-29T15:20:19.193Z,98779.00
2023-11-29T15:22:49.264Z,98779.00
2023-11-29T15:25:20.824Z,98782.00
2023-11-29T15:27:49.710Z,98780.00
2023-11-29T15:30:18.985Z,98788.00
2023-11-29T15:32:50.846Z,98788.00
2023-11-29T15:35:21.981Z,98785.00
2023-11-29T15:37:52.280Z,98781.00
2023-11-29T15:40:21.533Z,98774.00
2023-11-29T15:42:50.313Z,98779.00
2023-11-29T15:45:19.395Z,98777.00
2023-11-29T15:47:48.253Z,98767.00
2023-11-29T15:50:17.231Z,98764.00
2023-11-29T15:52:45.967Z,98768.00
2023-11-29T15:55:19.137Z,98762.00
2023-11-29T15:57:47.883Z,98771.00
2023-11-29T16:00:17.643Z,98777.00
2023-11-29T16:02:46.706Z,98774.00
2023-11-29T16:05:15.659Z,98777.00
2023-11-29T16:07:44.426Z,98771.00
2023-11-29T16:10:13.270Z,98774.00
2023-11-29T16:12:43.450Z,98777.00
2023-11-29T16:15:12.884Z,98770.00
2023-11-29T16:17:41.744Z,98770.00
2023-11-29T16:20:11.555Z,98771.00
2023-11-29T16:22:40.650Z,98763.00
2023-11-29T16:25:10.416Z,98759.00
2023-11-29T16:27:39.247Z,98759.00
2023-11-29T16:30:10.259Z,98770.00
2023-11-29T16:32:39.201Z,98772.00
2023-11-29T16:35:08.984Z,98767.00
2023-11-29T16:37:37.744Z,98760.00
2023-11-29T16:40:07.420Z,98762.00
2023-11-29T16:42:37.312Z,98764.00
2023-11-29T16:45:06.710Z,98762.00
2023-11-29T16:47:37.070Z,98768.00
2023-11-29T16:50:06.957Z,98767.00
2023-11-29T16:52:36.448Z,98774.00
2023-11-29T16:55:05.683Z,98767.00
2023-11-29T16:57:34.560Z,98760.00
2023-11-29T17:00:04.470Z,98764.00
2023-11-29T17:02:33.439Z,98766.00
2023-11-29T17:05:03.690Z,98766.00
2023-11-29T17:07:32.490Z,98764.00
2023-11-29T17:10:01.291Z,98768.00
2023-11-29T17:12:30.032Z,98770.00
2023-11-29T17:14:58.983Z,98775.00
2023-11-29T17:17:27.784Z,98776.00
2023-11-29T17:19:58.232Z,98770.00
2023-11-29T17:22:29.183Z,98766.00
2023-11-29T17:24:58.109Z,98776.00
2023-11-29T17:27:26.815Z,98781.00
2023-11-29T17:29:55.650Z,98793.00
2023-11-29T17:32:24.412Z,98782.00
2023-11-29T17:34:53.165Z,98793.00
2023-11-29T17:37:21.942Z,98786.00
2023-11-29T17:39:52.090Z,98792.00
2023-11-29T17:42:20.855Z,98788.00
2023-11-29T17:44:49.754Z,98797.00
2023-11-29T17:47:21.352Z,98796.00
2023-11-29T17:49:50.389Z,98792.00
2023-11-29T17:52:19.123Z,98803.00
2023-11-29T17:54:48.518Z,98809.00
2023-11-29T17:57:18.750Z,98809.00
2023-11-29T17:59:47.512Z,98808.00
2023-11-29T18:02:16.342Z,98807.00
2023-11-29T18:04:46.301Z,98809.00
2023-11-29T18:07:15.279Z,98817.00
2023-11-29T18:09:44.033Z,98815.00
2023-11-29T18:12:12.861Z,98817.00
2023-11-29T18:14:43.124Z,98819.00
2023-11-29T18:17:12.019Z,98827.00
2023-11-29T18:19:40.765Z,98821.00
2023-11-29T18:22:09.569Z,98821.00
2023-11-29T18:24:38.381Z,98826.00
2023-11-29T18:27:07.406Z,98824.00
2023-11-29T18:29:36.214Z,98825.00
2023-11-29T18:32:06.907Z,98826.00
2023-11-29T18:34:35.706Z,98826.00
2023-11-29T18:37:09.482Z,98834.00
2023-11-29T18:39:38.376Z,98836.00
2023-11-29T18:42:07.397Z,98847.00
2023-11-29T18:44:38.580Z,98850.00
2023-11-29T18:47:09.062Z,98844.00
2023-11-29T18:49:37.817Z,98850.00
2023-11-29T18:52:06.920Z,98853.00
2023-11-29T18:54:35.649Z,98837.00
2023-11-29T18:57:04.867Z,98849.00
2023-11-29T18:59:35.600Z,98855.00
2023-11-29T19:02:04.574Z,98862.00
2023-11-29T19:04:35.372Z,98866.00
2023-11-29T19:07:04.721Z,98854.00
2023-11-29T19:09:33.470Z,98860.00
2023-11-29T19:12:04.457Z,98856.00
2023-11-29T19:14:33.644Z,98866.00
2023-11-29T19:17:02.399Z,98862.00
2023-11-29T19:19:31.162Z,98867.00
2023-11-29T19:22:01.449Z,98870.00
2023-11-29T19:24:30.265Z,98872.00
2023-11-29T19:26:59.085Z,98873.00
2023-11-29T19:29:27.862Z,98882.00
2023-11-29T19:31:57.556Z,98882.00
2023-11-29T19:34:26.366Z,98883.00
2023-11-29T19:36:55.159Z,98882.00
2023-11-29T19:39:25.647Z,98893.00
2023-11-29T19:41:54.495Z,98889.00
2023-11-29T19:44:23.320Z,98879.00
2023-11-29T19:47:03.023Z,98900.00
2023-11-29T19:49:39.039Z,98892.00
2023-11-29T19:52:09.298Z,98890.00
2023-11-29T19:54:39.662Z,98888.00
2023-11-29T19:57:09.371Z,98890.00
2023-11-29T19:59:38.226Z,98896.00
2023-11-29T20:02:07.038Z,98901.00
2023-11-29T20:04:35.751Z,98894.00
2023-11-29T20:07:04.561Z,98894.00
2023-11-29T20:09:33.422Z,98906.00
2023-11-29T20:12:03.718Z,98907.00
2023-11-29T20:14:34.449Z,98910.00
2023-11-29T20:17:04.329Z,98911.00
2023-11-29T20:19:33.065Z,98911.00
2023-11-29T20:22:01.860Z,98915.00
2023-11-29T20:24:30.634Z,98916.00
2023-11-29T20:26:59.438Z,98926.00
2023-11-29T20:29:29.598Z,98926.00
2023-11-29T20:31:58.296Z,98922.00
2023-11-29T20:34:35.300Z,98934.00
2023-11-29T20:37:11.672Z,98935.00
2023-11-29T20:39:41.988Z,98938.00
2023-11-29T20:42:10.906Z,98951.00
2023-11-29T20:44:41.098Z,98939.00
2023-11-29T20:47:10.112Z,98944.00
2023-11-29T20:49:39.020Z,98947.00
2023-11-29T20:52:07.846Z,98944.00
2023-11-29T20:54:36.637Z,98945.00
2023-11-29T20:57:08.549Z,98951.00
2023-11-29T20:59:37.524Z,98945.00
2023-11-29T21:02:07.893Z,98949.00
2023-11-29T21:04:36.681Z,98946.00
2023-11-29T21:07:05.591Z,98942.00
2023-11-29T21:09:34.376Z,98941.00
2023-11-29T21:12:03.358Z,98951.00
2023-11-29T21:14:32.595Z,98956.00
2023-11-29T21:17:03.770Z,98945.00
2023-11-29T21:19:34.005Z,98943.00
2023-11-29T21:22:02.790Z,98949.00
2023-11-29T21:24:31.557Z,98942.00
2023-11-29T21:27:00.333Z,98939.00
2023-11-29T21:29:29.197Z,98955.00
2023-11-29T21:31:58.354Z,98948.00
2023-11-29T21:34:27.238Z,98953.00
2023-11-29T21:36:57.362Z,98949.00
2023-11-29T21:39:26.179Z,98958.00
2023-11-29T21:41:55.074Z,98951.00
2023-11-29T21:44:23.798Z,98935.00
2023-11-29T21:46:52.581Z,98942.00
2023-11-29T21:49:21.321Z,98939.00
2023-11-29T21:51:50.107Z,98941.00
2023-11-29T21:54:20.369Z,98949.00
2023-11-29T21:56:49.240Z,98953.00
2023-11-29T21:59:18.035Z,98952.00
2023-11-29T22:01:53.071Z,98952.00
2023-11-29T22:04:22.403Z,98948.00
2023-11-29T22:06:51.498Z,98953.00
2023-11-29T22:09:22.128Z,98954.00
2023-11-29T22:11:51.156Z,98957.00
2023-11-29T22:14:19.907Z,98962.00
2023-11-29T22:16:48.694Z,98961.00
2023-11-29T22:19:17.483Z,98965.00
2023-11-29T22:21:46.204Z,98965.00
2023-11-29T22:24:15.029Z,98966.00
2023-11-29T22:26:52.495Z,98955.00
2023-11-29T22:29:26.725Z,98963.00
2023-11-29T22:31:56.279Z,98965.00
2023-11-29T22:34:25.047Z,98963.00
2023-11-29T22:36:53.949Z,98963.00
2023-11-29T22:39:22.723Z,98965.00
2023-11-29T22:41:53.486Z,98965.00
2023-11-29T22:44:22.254Z,98965.00
2023-11-29T22:46:50.964Z,98968.00
2023-11-29T22:49:19.715Z,98967.00
2023-11-29T22:51:48.446Z,98971.00
2023-11-29T22:54:17.231Z,98965.00
2023-11-29T22:56:46.058Z,98972.00
2023-11-29T22:59:16.228Z,98972.00
2023-11-29T23:01:46.735Z,98973.00
2023-11-29T23:04:15.652Z,98973.00
2023-11-29T23:06:46.331Z,98974.00
2023-11-29T23:09:15.686Z,98973.00
2023-11-29T23:11:44.674Z,98970.00
2023-11-29T23:14:13.445Z,98966.00
2023-11-29T23:16:43.639Z,98971.00
2023-11-29T23:19:12.440Z,98972.00
2023-11-29T23:21:41.224Z,98967.00
2023-11-29T23:24:10.295Z,98961.00
2023-11-29T23:26:39.088Z,98959.00
2023-11-29T23:29:07.832Z,98963.00
2023-11-29T23:31:36.584Z,98965.00
2023-11-29T23:34:06.779Z,98963.00
2023-11-29T23:36:35.559Z,98964.00
2023-11-29T23:39:04.483Z,98967.00
2023-11-29T23:41:33.295Z,98961.00
2023-11-29T23:44:02.098Z,98960.00
2023-11-29T23:46:30.826Z,98965.00
2023-11-29T23:49:00.561Z,98965.00
2023-11-29T23:51:30.755Z,98961.00
2023-11-29T23:53:59.512Z,98966.00
2023-11-29T23:56:28.320Z,98967.00
2023-11-29T23:58:57.068Z,98963.00
